• Join FlightAware (Why Join?)
  • Login
  • US Flag 
02:41AM EDT


 

Airport Tracker/Info


-or-


 

Live Flight TrackerFlight Track Log ✈ EJA729 ✈ 30-Jun-2013 ✈ KSJC - KLGB

Flight Track Log - Related Links

Times and Time Zones

All times are in EDT time to prevent confusion due to time zone crossing. See the EJA729 flight status page for this flight to view local times or setup timezone preferences in your user account.

Time Position Orientation Groundspeed Altitude Reporting Facility
EDT Latitude Longitude Course Direction KTS MPH feet Rate Location/Type
04:38PM 37.4000 -121.9833 138° Southeast 185 213 3,300  Level Northern Cal TRACON
04:39PM 37.4500 -121.9500 28° Northeast 223 257 4,900 840 Climbing Northern Cal TRACON
04:39PM 37.4167 -121.9000 130° Southeast 225 259 5,000 1,380 Climbing Northern Cal TRACON
04:41PM 37.3667 -121.8333 133° Southeast 223 257 7,700 2,340 Climbing Northern Cal TRACON
04:41PM 37.3200 -121.7875 142° Southeast 235 270 9,800 2,340 Climbing Oakland Center
04:42PM 37.2542 -121.7111 137° Southeast 303 349 12,300 2,520 Climbing Oakland Center
04:43PM 36.8981 -121.4069 138° Southeast  Level Estimated
04:43PM 37.1803 -121.6247 137° Southeast 346 398 15,000  Level Oakland Center
04:44PM 36.8205 -121.3205 138° Southeast  Level Estimated
04:45PM 37.1039 -121.5319 136° Southeast 373 429 18,000  Level Oakland Center
04:46PM 37.0186 -121.4403 139° Southeast 384 442 21,200 3,000 Climbing Oakland Center
04:47PM 36.9397 -121.3536 139° Southeast 381 438 24,200 2,640 Climbing Oakland Center
04:48PM 36.8592 -121.2656 139° Southeast 382 440 26,600 2,100 Climbing Oakland Center
04:49PM 36.7753 -121.1781 140° Southeast 391 450 28,600 2,100 Climbing Oakland Center
04:50PM 36.6692 -121.0661 140° Southeast 411 473 31,000 2,040 Climbing Oakland Center
04:51PM 36.5792 -120.9692 139° Southeast 422 486 32,900 960 Climbing Oakland Center
04:52PM 36.4850 -120.8689 139° Southeast 437 503 33,000  Climbing Oakland Center
04:53PM 36.3856 -120.7606 139° Southeast 463 533 33,000  Level Oakland Center
04:54PM 36.2858 -120.6531 139° Southeast 473 544 33,000  Level Oakland Center
04:55PM 36.1842 -120.5467 140° Southeast 476 548 33,000  Level Oakland Center
04:56PM 36.0850 -120.4389 139° Southeast 475 547 33,000  Level Oakland Center
04:57PM 35.9856 -120.3322 139° Southeast 473 544 33,000  Level Oakland Center
04:58PM 35.8831 -120.2233 139° Southeast 480 552 33,000  Level Oakland Center
04:59PM 35.7814 -120.1183 140° Southeast 476 548 33,000 -60 Level Oakland Center
05:00PM 35.6792 -120.0122 140° Southeast 477 549 32,900  Descending Oakland Center
05:01PM 35.5744 -119.9131 142° Southeast 474 545 33,000  Climbing Oakland Center
05:02PM 35.4333 -119.8286 154° Southeast 481 554 33,000  Level Oakland Center
05:03PM 35.3031 -119.8111 174° South 467 537 33,000  Level Oakland Center
05:04PM 35.1733 -119.7942 174° South 468 539 33,000  Level Los Angeles Center
05:05PM 35.0297 -119.7211 157° South 469 540 33,000  Level Los Angeles Center
05:06PM 34.9161 -119.6447 151° Southeast 467 537 33,000 -60 Level Los Angeles Center
05:07PM 34.8308 -119.5342 133° Southeast 450 518 32,900 -780 Descending Los Angeles Center
05:08PM 34.7531 -119.4225 130° Southeast 435 501 31,400 -1,500 Descending Los Angeles Center
05:09PM 34.6744 -119.3139 131° Southeast 429 494 29,900 -1,500 Descending Los Angeles Center
05:10PM 34.5881 -119.2000 133° Southeast 432 497 28,300 -1,500 Descending Los Angeles Center
05:11PM 34.5069 -119.0903 132° Southeast 436 502 26,800 -1,500 Descending Los Angeles Center
05:12PM 34.4319 -118.9850 131° Southeast 417 480 25,300 -1,380 Descending Los Angeles Center
05:13PM 34.3442 -118.8753 134° Southeast 383 441 24,000 -1,320 Descending Los Angeles Center
05:14PM 34.2436 -118.8389 163° South 377 434 22,600 -1,860 Descending Los Angeles Center
05:15PM 34.1478 -118.8039 163° South 363 418 20,200 -2,520 Descending Los Angeles Center
05:17PM 34.0367 -118.7631 163° South 398 458 17,400 -2,700 Descending Los Angeles Center
05:18PM 33.9225 -118.7214 163° South 399 459 14,700 -1,680 Descending Los Angeles Center
05:19PM 33.8197 -118.6839 163° South 368 423 14,000 -540 Descending Los Angeles Center
05:20PM 33.7267 -118.6508 164° South 352 405 13,700 -960 Descending Los Angeles Center
05:21PM 33.6458 -118.6222 164° South 308 354 12,100 -1,500 Descending Los Angeles Center
05:22PM 33.5711 -118.5850 157° South 296 341 10,600 -1,440 Descending Los Angeles Center
05:23PM 33.5050 -118.5292 145° Southeast 295 339 9,200 -1,560 Descending Los Angeles Center
05:24PM 33.4358 -118.4544 138° Southeast 288 331 7,400 -1,620 Descending Los Angeles Center
05:25PM 33.4336 -118.3647 92° East 274 315 5,900 -1,500 Descending Los Angeles Center
05:26PM 33.4642 -118.2914 63° Northeast 256 295 4,400 -1,020 Descending Los Angeles Center
05:27PM 33.4936 -118.2231 63° Northeast 245 282 3,800 -720 Descending Los Angeles Center
05:28PM 33.5233 -118.1558 62° Northeast 236 272 3,000 -420 Descending Los Angeles Center
05:29PM 33.5675 -118.0917 50° Northeast 221 254 3,000  Level Los Angeles Center
05:30PM 33.6053 -118.0469 45° Northeast 203 234 3,000  Level Los Angeles Center
05:31PM 33.6447 -118.0042 42° Northeast 194 223 3,000  Level Los Angeles Center
05:32PM 33.6922 -118.0078 356° North 193 222 3,000 -540 Level Los Angeles Center
05:33PM 33.7394 -118.0539 321° Northwest 186 214 2,000 -900 Descending Los Angeles Center
05:34PM 33.7708 -118.0933 314° West 175 201 1,200  Descending Los Angeles Center
05:35PM 33.7842 -118.1442 288° West 184 212 2,000 840 Climbing Los Angeles Center
05:36PM 33.7325 -118.1744 206° Southwest 204 235 3,000 480 Climbing Los Angeles Center
05:37PM 33.6719 -118.1414 156° South 227 261 3,000  Level Los Angeles Center
05:38PM 33.6150 -118.1172 161° South 220 253 3,000  Level Los Angeles Center
05:39PM 33.5619 -118.0939 160° South 211 243 3,000  Level Los Angeles Center
05:41PM 33.6347 -118.0003 47° Northeast 199 229 3,000  Level Los Angeles Center
05:42PM 33.6833 -117.9667 30° Northeast 199 229 3,000  Level Southern California TRACON
05:43PM 33.7333 -117.9500 15° North 199 229 3,000  Level Southern California TRACON
05:44PM 33.7833 -117.9000 40° Northeast 210 242 3,000 -420 Level Southern California TRACON
05:45PM 33.7667 -117.8333 107° East 191 220 2,200 -900 Descending Southern California TRACON
05:46PM 33.7167 -117.8333 180° South 150 173 1,200 -960 Descending Southern California TRACON
05:47PM 33.6833 -117.8667 220° Southwest 144 166 300 -900 Descending Southern California TRACON